Windham, Ohio
Current Conditions -  °F | °C
As of 11:38 AM on Friday 24 Oct 2014 (Local Time) from KPOV Reporting Station
Clear Clear  
Wind Chill: 53°   Ceiling: Unl
Heat Index: 53°   Visibility: 10mi
Dew Point: 38°   Wind: 5mph
Humidity: 57%   Direction: 280°W
Pressure: 30.09"   Gusts: NA
Location:  41.24°N, 81.05°W
Report Text: KPOV 241538Z AUTO 28004KT 10SM CLR 12/03 A3009 RMK AO2 T01170034
Loading
Personal Weather Stations






























Interactive Weather Map
Tropical Storm Tracking
New forecast layout! Learn more

10-Day Weather Forecast

Advertisements
Track Severe Weather on mobile